sensor_id;sensor_type;location;lat;lon;timestamp;temperature;humidity
80228;DHT22;69539;42.138;24.742;2023-05-20T00:00:47;20.70;42.70
80228;DHT22;69539;42.138;24.742;2023-05-20T00:03:14;20.70;42.80
80228;DHT22;69539;42.138;24.742;2023-05-20T00:05:40;20.60;42.90
80228;DHT22;69539;42.138;24.742;2023-05-20T00:08:05;20.60;43.10
80228;DHT22;69539;42.138;24.742;2023-05-20T00:10:34;20.60;43.20
80228;DHT22;69539;42.138;24.742;2023-05-20T00:13:00;20.60;43.30
80228;DHT22;69539;42.138;24.742;2023-05-20T00:15:26;20.50;43.20
80228;DHT22;69539;42.138;24.742;2023-05-20T00:17:52;20.50;43.20
80228;DHT22;69539;42.138;24.742;2023-05-20T00:20:17;20.50;43.20
80228;DHT22;69539;42.138;24.742;2023-05-20T00:22:43;20.50;43.20
80228;DHT22;69539;42.138;24.742;2023-05-20T00:25:09;20.50;43.40
80228;DHT22;69539;42.138;24.742;2023-05-20T00:27:34;20.40;43.40
80228;DHT22;69539;42.138;24.742;2023-05-20T00:30:00;20.40;43.50
80228;DHT22;69539;42.138;24.742;2023-05-20T00:32:26;20.40;43.60
80228;DHT22;69539;42.138;24.742;2023-05-20T00:34:56;20.30;43.70
80228;DHT22;69539;42.138;24.742;2023-05-20T00:37:22;20.30;43.90
80228;DHT22;69539;42.138;24.742;2023-05-20T00:39:48;20.30;43.90
80228;DHT22;69539;42.138;24.742;2023-05-20T00:42:25;20.20;43.90
80228;DHT22;69539;42.138;24.742;2023-05-20T00:44:51;20.20;43.90
80228;DHT22;69539;42.138;24.742;2023-05-20T00:47:19;20.20;44.00
80228;DHT22;69539;42.138;24.742;2023-05-20T00:49:47;20.20;44.00
80228;DHT22;69539;42.138;24.742;2023-05-20T00:52:13;20.10;44.10
80228;DHT22;69539;42.138;24.742;2023-05-20T00:54:40;20.10;44.20
80228;DHT22;69539;42.138;24.742;2023-05-20T00:57:06;20.10;44.20
80228;DHT22;69539;42.138;24.742;2023-05-20T00:59:36;20.10;44.40
80228;DHT22;69539;42.138;24.742;2023-05-20T01:02:03;20.00;44.40
80228;DHT22;69539;42.138;24.742;2023-05-20T01:04:29;20.00;44.70
80228;DHT22;69539;42.138;24.742;2023-05-20T01:06:56;20.00;44.90
80228;DHT22;69539;42.138;24.742;2023-05-20T01:09:23;20.00;45.00
80228;DHT22;69539;42.138;24.742;2023-05-20T01:12:15;20.00;45.30
80228;DHT22;69539;42.138;24.742;2023-05-20T01:15:09;19.90;45.40
80228;DHT22;69539;42.138;24.742;2023-05-20T01:17:46;19.90;45.70
80228;DHT22;69539;42.138;24.742;2023-05-20T01:20:14;19.90;45.80
80228;DHT22;69539;42.138;24.742;2023-05-20T01:22:53;19.90;46.00
80228;DHT22;69539;42.138;24.742;2023-05-20T01:25:19;19.80;46.00
80228;DHT22;69539;42.138;24.742;2023-05-20T01:27:46;19.80;46.10
80228;DHT22;69539;42.138;24.742;2023-05-20T01:30:13;19.80;46.20
80228;DHT22;69539;42.138;24.742;2023-05-20T01:32:51;19.80;46.20
80228;DHT22;69539;42.138;24.742;2023-05-20T01:35:18;19.80;46.20
80228;DHT22;69539;42.138;24.742;2023-05-20T01:37:46;19.70;46.20
80228;DHT22;69539;42.138;24.742;2023-05-20T01:40:14;19.70;46.40
80228;DHT22;69539;42.138;24.742;2023-05-20T01:42:42;19.70;46.40
80228;DHT22;69539;42.138;24.742;2023-05-20T01:45:08;19.60;46.40
80228;DHT22;69539;42.138;24.742;2023-05-20T01:47:33;19.60;46.60
80228;DHT22;69539;42.138;24.742;2023-05-20T01:49:59;19.60;46.50
80228;DHT22;69539;42.138;24.742;2023-05-20T01:52:25;19.60;46.60
80228;DHT22;69539;42.138;24.742;2023-05-20T01:54:51;19.60;46.60
80228;DHT22;69539;42.138;24.742;2023-05-20T01:57:21;19.60;46.70
80228;DHT22;69539;42.138;24.742;2023-05-20T01:59:47;19.60;46.70
80228;DHT22;69539;42.138;24.742;2023-05-20T02:02:13;19.60;46.70
80228;DHT22;69539;42.138;24.742;2023-05-20T02:04:39;19.50;46.70
80228;DHT22;69539;42.138;24.742;2023-05-20T02:07:06;19.50;46.70
80228;DHT22;69539;42.138;24.742;2023-05-20T02:09:32;19.50;46.80
80228;DHT22;69539;42.138;24.742;2023-05-20T02:11:58;19.50;46.80
80228;DHT22;69539;42.138;24.742;2023-05-20T02:14:23;19.50;46.80
80228;DHT22;69539;42.138;24.742;2023-05-20T02:16:49;19.50;46.90
80228;DHT22;69539;42.138;24.742;2023-05-20T02:19:15;19.40;46.80
80228;DHT22;69539;42.138;24.742;2023-05-20T02:21:48;19.40;46.80
80228;DHT22;69539;42.138;24.742;2023-05-20T02:24:14;19.40;46.80
80228;DHT22;69539;42.138;24.742;2023-05-20T02:26:40;19.40;46.80
80228;DHT22;69539;42.138;24.742;2023-05-20T02:29:06;19.30;46.80
80228;DHT22;69539;42.138;24.742;2023-05-20T02:31:32;19.40;46.90
80228;DHT22;69539;42.138;24.742;2023-05-20T02:33:57;19.30;46.70
80228;DHT22;69539;42.138;24.742;2023-05-20T02:36:23;19.30;46.80
80228;DHT22;69539;42.138;24.742;2023-05-20T02:38:49;19.30;46.70
80228;DHT22;69539;42.138;24.742;2023-05-20T02:41:15;19.20;46.60
80228;DHT22;69539;42.138;24.742;2023-05-20T02:43:41;19.30;46.60
80228;DHT22;69539;42.138;24.742;2023-05-20T02:46:08;19.20;46.60
80228;DHT22;69539;42.138;24.742;2023-05-20T02:48:34;19.20;46.50
80228;DHT22;69539;42.138;24.742;2023-05-20T02:51:00;19.20;46.40
80228;DHT22;69539;42.138;24.742;2023-05-20T02:53:25;19.20;46.40
80228;DHT22;69539;42.138;24.742;2023-05-20T02:55:51;19.20;46.40
80228;DHT22;69539;42.138;24.742;2023-05-20T02:58:17;19.20;46.30
80228;DHT22;69539;42.138;24.742;2023-05-20T03:00:42;19.20;46.20
80228;DHT22;69539;42.138;24.742;2023-05-20T03:03:09;19.20;46.10
80228;DHT22;69539;42.138;24.742;2023-05-20T03:05:37;19.10;46.10
80228;DHT22;69539;42.138;24.742;2023-05-20T03:08:08;19.10;46.00
80228;DHT22;69539;42.138;24.742;2023-05-20T03:10:38;19.10;46.10
80228;DHT22;69539;42.138;24.742;2023-05-20T03:13:04;19.10;46.10
80228;DHT22;69539;42.138;24.742;2023-05-20T03:15:38;19.10;46.10
80228;DHT22;69539;42.138;24.742;2023-05-20T03:18:04;19.10;46.00
80228;DHT22;69539;42.138;24.742;2023-05-20T03:20:31;19.10;46.00
80228;DHT22;69539;42.138;24.742;2023-05-20T03:22:57;19.10;46.00
80228;DHT22;69539;42.138;24.742;2023-05-20T03:25:23;19.10;46.10
80228;DHT22;69539;42.138;24.742;2023-05-20T03:27:50;19.10;46.10
80228;DHT22;69539;42.138;24.742;2023-05-20T03:30:16;19.00;46.00
80228;DHT22;69539;42.138;24.742;2023-05-20T03:32:42;19.00;46.00
80228;DHT22;69539;42.138;24.742;2023-05-20T03:35:07;19.00;46.00
80228;DHT22;69539;42.138;24.742;2023-05-20T03:37:34;19.00;46.10
80228;DHT22;69539;42.138;24.742;2023-05-20T03:40:01;19.00;46.10
80228;DHT22;69539;42.138;24.742;2023-05-20T03:42:27;19.00;46.00
80228;DHT22;69539;42.138;24.742;2023-05-20T03:44:52;19.00;46.00
80228;DHT22;69539;42.138;24.742;2023-05-20T03:47:18;19.00;46.10
80228;DHT22;69539;42.138;24.742;2023-05-20T03:49:43;19.00;46.20
80228;DHT22;69539;42.138;24.742;2023-05-20T03:52:09;19.00;46.50
80228;DHT22;69539;42.138;24.742;2023-05-20T03:54:35;19.00;46.50
80228;DHT22;69539;42.138;24.742;2023-05-20T03:57:01;19.10;46.60
80228;DHT22;69539;42.138;24.742;2023-05-20T03:59:28;19.20;46.40
80228;DHT22;69539;42.138;24.742;2023-05-20T04:01:54;19.30;46.30
80228;DHT22;69539;42.138;24.742;2023-05-20T04:04:21;19.40;46.30
80228;DHT22;69539;42.138;24.742;2023-05-20T04:06:46;19.40;46.00
80228;DHT22;69539;42.138;24.742;2023-05-20T04:09:12;19.60;45.90
80228;DHT22;69539;42.138;24.742;2023-05-20T04:11:38;19.70;45.60
80228;DHT22;69539;42.138;24.742;2023-05-20T04:14:04;19.70;45.40
80228;DHT22;69539;42.138;24.742;2023-05-20T04:16:29;19.80;45.20
80228;DHT22;69539;42.138;24.742;2023-05-20T04:18:55;19.90;45.00
80228;DHT22;69539;42.138;24.742;2023-05-20T04:21:23;19.90;44.70
80228;DHT22;69539;42.138;24.742;2023-05-20T04:23:49;20.00;44.70
80228;DHT22;69539;42.138;24.742;2023-05-20T04:26:14;20.10;44.40
80228;DHT22;69539;42.138;24.742;2023-05-20T04:28:41;20.20;44.30
80228;DHT22;69539;42.138;24.742;2023-05-20T04:31:07;20.30;43.90
80228;DHT22;69539;42.138;24.742;2023-05-20T04:33:32;20.40;43.70
80228;DHT22;69539;42.138;24.742;2023-05-20T04:36:02;20.60;43.60
80228;DHT22;69539;42.138;24.742;2023-05-20T04:38:30;20.70;43.10
80228;DHT22;69539;42.138;24.742;2023-05-20T04:40:57;20.80;42.80
80228;DHT22;69539;42.138;24.742;2023-05-20T04:43:27;21.00;42.50
80228;DHT22;69539;42.138;24.742;2023-05-20T04:45:58;21.10;42.00
80228;DHT22;69539;42.138;24.742;2023-05-20T04:48:26;21.10;41.70
80228;DHT22;69539;42.138;24.742;2023-05-20T04:50:52;21.10;41.60
80228;DHT22;69539;42.138;24.742;2023-05-20T04:53:19;21.10;41.50
80228;DHT22;69539;42.138;24.742;2023-05-20T04:55:46;21.20;41.60
80228;DHT22;69539;42.138;24.742;2023-05-20T04:58:13;21.30;41.50
80228;DHT22;69539;42.138;24.742;2023-05-20T05:00:45;21.50;41.10
80228;DHT22;69539;42.138;24.742;2023-05-20T05:03:11;21.70;40.90
80228;DHT22;69539;42.138;24.742;2023-05-20T05:05:39;21.80;40.40
80228;DHT22;69539;42.138;24.742;2023-05-20T05:08:07;22.00;40.00
80228;DHT22;69539;42.138;24.742;2023-05-20T05:10:33;22.10;39.80
80228;DHT22;69539;42.138;24.742;2023-05-20T05:12:59;22.30;39.50
80228;DHT22;69539;42.138;24.742;2023-05-20T05:15:25;22.50;39.40
80228;DHT22;69539;42.138;24.742;2023-05-20T05:17:50;22.60;39.00
80228;DHT22;69539;42.138;24.742;2023-05-20T05:20:16;22.80;38.70
80228;DHT22;69539;42.138;24.742;2023-05-20T05:22:43;22.90;38.40
80228;DHT22;69539;42.138;24.742;2023-05-20T05:25:09;23.10;38.30
80228;DHT22;69539;42.138;24.742;2023-05-20T05:27:35;23.30;38.10
80228;DHT22;69539;42.138;24.742;2023-05-20T05:30:02;23.40;38.00
80228;DHT22;69539;42.138;24.742;2023-05-20T05:32:28;23.60;37.50
80228;DHT22;69539;42.138;24.742;2023-05-20T05:34:53;23.70;37.10
80228;DHT22;69539;42.138;24.742;2023-05-20T05:37:19;23.90;36.50
80228;DHT22;69539;42.138;24.742;2023-05-20T05:39:45;24.00;36.50
80228;DHT22;69539;42.138;24.742;2023-05-20T05:42:11;24.20;36.40
80228;DHT22;69539;42.138;24.742;2023-05-20T05:44:37;24.30;36.10
80228;DHT22;69539;42.138;24.742;2023-05-20T05:47:03;24.50;36.90
80228;DHT22;69539;42.138;24.742;2023-05-20T05:49:30;24.70;35.50
80228;DHT22;69539;42.138;24.742;2023-05-20T05:51:55;24.80;35.40
80228;DHT22;69539;42.138;24.742;2023-05-20T05:54:21;25.00;35.00
80228;DHT22;69539;42.138;24.742;2023-05-20T05:56:47;25.10;34.60
80228;DHT22;69539;42.138;24.742;2023-05-20T05:59:12;25.20;34.20
80228;DHT22;69539;42.138;24.742;2023-05-20T06:01:38;25.40;34.20
80228;DHT22;69539;42.138;24.742;2023-05-20T06:04:04;25.50;33.90
80228;DHT22;69539;42.138;24.742;2023-05-20T06:06:30;25.70;33.70
80228;DHT22;69539;42.138;24.742;2023-05-20T06:08:56;25.80;33.50
80228;DHT22;69539;42.138;24.742;2023-05-20T06:11:22;26.00;33.40
80228;DHT22;69539;42.138;24.742;2023-05-20T06:13:49;26.10;33.30
80228;DHT22;69539;42.138;24.742;2023-05-20T06:16:15;26.20;33.20
80228;DHT22;69539;42.138;24.742;2023-05-20T06:18:41;26.30;33.00
80228;DHT22;69539;42.138;24.742;2023-05-20T06:21:07;26.40;33.30
80228;DHT22;69539;42.138;24.742;2023-05-20T06:23:33;26.50;33.40
80228;DHT22;69539;42.138;24.742;2023-05-20T06:25:59;26.60;33.10
80228;DHT22;69539;42.138;24.742;2023-05-20T06:28:25;26.70;33.30
80228;DHT22;69539;42.138;24.742;2023-05-20T06:30:53;26.80;33.10
80228;DHT22;69539;42.138;24.742;2023-05-20T06:33:19;26.90;32.50
80228;DHT22;69539;42.138;24.742;2023-05-20T06:35:46;27.00;32.60
80228;DHT22;69539;42.138;24.742;2023-05-20T06:38:12;27.10;32.40
80228;DHT22;69539;42.138;24.742;2023-05-20T06:40:37;27.20;32.40
80228;DHT22;69539;42.138;24.742;2023-05-20T06:43:03;27.30;32.50
80228;DHT22;69539;42.138;24.742;2023-05-20T06:45:29;27.40;32.10
80228;DHT22;69539;42.138;24.742;2023-05-20T06:47:54;27.50;31.10
80228;DHT22;69539;42.138;24.742;2023-05-20T06:50:20;27.60;31.40
80228;DHT22;69539;42.138;24.742;2023-05-20T06:52:46;27.70;31.50
80228;DHT22;69539;42.138;24.742;2023-05-20T06:55:12;27.80;31.80
80228;DHT22;69539;42.138;24.742;2023-05-20T06:57:37;27.90;31.00
80228;DHT22;69539;42.138;24.742;2023-05-20T07:00:04;28.00;31.60
80228;DHT22;69539;42.138;24.742;2023-05-20T07:02:32;28.10;31.60
80228;DHT22;69539;42.138;24.742;2023-05-20T07:04:58;28.30;31.20
80228;DHT22;69539;42.138;24.742;2023-05-20T07:07:23;28.40;30.90
80228;DHT22;69539;42.138;24.742;2023-05-20T07:09:49;28.50;30.90
80228;DHT22;69539;42.138;24.742;2023-05-20T07:12:15;28.60;30.70
80228;DHT22;69539;42.138;24.742;2023-05-20T07:14:41;28.80;30.30
80228;DHT22;69539;42.138;24.742;2023-05-20T07:17:07;28.90;29.00
80228;DHT22;69539;42.138;24.742;2023-05-20T07:19:33;29.00;29.40
80228;DHT22;69539;42.138;24.742;2023-05-20T07:21:59;29.10;29.20
80228;DHT22;69539;42.138;24.742;2023-05-20T07:24:25;29.30;28.40
80228;DHT22;69539;42.138;24.742;2023-05-20T07:26:50;29.40;29.30
80228;DHT22;69539;42.138;24.742;2023-05-20T07:29:16;29.60;28.50
80228;DHT22;69539;42.138;24.742;2023-05-20T07:31:42;29.70;28.20
80228;DHT22;69539;42.138;24.742;2023-05-20T07:34:08;29.80;27.80
80228;DHT22;69539;42.138;24.742;2023-05-20T07:36:33;30.00;27.50
80228;DHT22;69539;42.138;24.742;2023-05-20T07:38:59;30.10;26.60
80228;DHT22;69539;42.138;24.742;2023-05-20T07:41:25;30.20;26.30
80228;DHT22;69539;42.138;24.742;2023-05-20T07:43:51;30.40;26.20
80228;DHT22;69539;42.138;24.742;2023-05-20T07:46:17;30.50;25.90
80228;DHT22;69539;42.138;24.742;2023-05-20T07:48:42;30.60;25.50
80228;DHT22;69539;42.138;24.742;2023-05-20T07:51:10;30.70;24.60
80228;DHT22;69539;42.138;24.742;2023-05-20T07:53:36;30.90;24.60
80228;DHT22;69539;42.138;24.742;2023-05-20T07:56:02;30.90;25.00
80228;DHT22;69539;42.138;24.742;2023-05-20T07:58:27;31.00;25.20
80228;DHT22;69539;42.138;24.742;2023-05-20T08:00:53;31.10;25.20
80228;DHT22;69539;42.138;24.742;2023-05-20T08:03:19;31.20;25.00
80228;DHT22;69539;42.138;24.742;2023-05-20T08:05:46;31.40;24.70
80228;DHT22;69539;42.138;24.742;2023-05-20T08:08:12;31.50;24.60
80228;DHT22;69539;42.138;24.742;2023-05-20T08:10:38;31.70;24.10
80228;DHT22;69539;42.138;24.742;2023-05-20T08:13:03;31.70;23.60
80228;DHT22;69539;42.138;24.742;2023-05-20T08:15:29;31.70;23.10
80228;DHT22;69539;42.138;24.742;2023-05-20T08:17:55;31.70;23.10
80228;DHT22;69539;42.138;24.742;2023-05-20T08:20:21;31.80;22.90
80228;DHT22;69539;42.138;24.742;2023-05-20T08:22:46;31.80;22.80
80228;DHT22;69539;42.138;24.742;2023-05-20T08:25:12;31.80;22.50
80228;DHT22;69539;42.138;24.742;2023-05-20T08:27:38;31.90;22.50
80228;DHT22;69539;42.138;24.742;2023-05-20T08:30:04;32.00;21.50
80228;DHT22;69539;42.138;24.742;2023-05-20T08:32:32;32.00;22.30
80228;DHT22;69539;42.138;24.742;2023-05-20T08:34:58;32.10;22.40
80228;DHT22;69539;42.138;24.742;2023-05-20T08:37:26;32.20;22.90
80228;DHT22;69539;42.138;24.742;2023-05-20T08:39:52;32.30;21.90
80228;DHT22;69539;42.138;24.742;2023-05-20T08:42:22;32.40;21.90
80228;DHT22;69539;42.138;24.742;2023-05-20T08:44:52;32.40;22.00
80228;DHT22;69539;42.138;24.742;2023-05-20T08:47:21;32.50;21.20
80228;DHT22;69539;42.138;24.742;2023-05-20T08:49:50;32.50;20.60
80228;DHT22;69539;42.138;24.742;2023-05-20T08:52:17;32.40;20.70
80228;DHT22;69539;42.138;24.742;2023-05-20T08:54:48;32.30;20.40
80228;DHT22;69539;42.138;24.742;2023-05-20T08:57:13;32.20;20.40
80228;DHT22;69539;42.138;24.742;2023-05-20T08:59:41;32.00;21.50
80228;DHT22;69539;42.138;24.742;2023-05-20T09:02:08;31.80;21.30
80228;DHT22;69539;42.138;24.742;2023-05-20T09:04:35;31.80;21.50
80228;DHT22;69539;42.138;24.742;2023-05-20T09:07:01;31.90;21.70
80228;DHT22;69539;42.138;24.742;2023-05-20T09:09:28;32.00;21.70
80228;DHT22;69539;42.138;24.742;2023-05-20T09:11:54;32.00;21.30
80228;DHT22;69539;42.138;24.742;2023-05-20T09:14:20;32.00;22.10
80228;DHT22;69539;42.138;24.742;2023-05-20T09:16:47;32.10;21.60
80228;DHT22;69539;42.138;24.742;2023-05-20T09:19:13;32.00;21.40
80228;DHT22;69539;42.138;24.742;2023-05-20T09:21:40;31.70;21.00
80228;DHT22;69539;42.138;24.742;2023-05-20T09:24:06;31.60;21.20
80228;DHT22;69539;42.138;24.742;2023-05-20T09:26:32;31.50;21.40
80228;DHT22;69539;42.138;24.742;2023-05-20T09:28:58;31.40;21.70
80228;DHT22;69539;42.138;24.742;2023-05-20T09:31:31;31.30;22.00
80228;DHT22;69539;42.138;24.742;2023-05-20T09:34:00;31.30;21.90
80228;DHT22;69539;42.138;24.742;2023-05-20T09:36:28;31.10;21.90
80228;DHT22;69539;42.138;24.742;2023-05-20T09:39:00;30.90;22.50
80228;DHT22;69539;42.138;24.742;2023-05-20T09:42:06;30.70;23.20
80228;DHT22;69539;42.138;24.742;2023-05-20T09:44:34;30.80;23.60
80228;DHT22;69539;42.138;24.742;2023-05-20T09:47:00;31.30;23.60
80228;DHT22;69539;42.138;24.742;2023-05-20T09:49:27;31.80;23.10
80228;DHT22;69539;42.138;24.742;2023-05-20T09:51:54;32.30;22.60
80228;DHT22;69539;42.138;24.742;2023-05-20T09:54:21;32.70;22.20
80228;DHT22;69539;42.138;24.742;2023-05-20T09:56:49;33.00;21.70
80228;DHT22;69539;42.138;24.742;2023-05-20T09:59:15;33.10;21.20
80228;DHT22;69539;42.138;24.742;2023-05-20T10:01:43;33.20;21.00
80228;DHT22;69539;42.138;24.742;2023-05-20T10:04:09;33.40;20.80
80228;DHT22;69539;42.138;24.742;2023-05-20T10:06:49;33.50;20.50
80228;DHT22;69539;42.138;24.742;2023-05-20T10:09:31;33.40;20.70
80228;DHT22;69539;42.138;24.742;2023-05-20T10:15:00;32.70;21.50
80228;DHT22;69539;42.138;24.742;2023-05-20T10:20:23;32.20;21.60
80228;DHT22;69539;42.138;24.742;2023-05-20T10:22:58;31.90;22.00
80228;DHT22;69539;42.138;24.742;2023-05-20T10:25:26;31.90;23.20
80228;DHT22;69539;42.138;24.742;2023-05-20T10:28:02;31.80;22.50
80228;DHT22;69539;42.138;24.742;2023-05-20T10:30:28;31.60;22.70
80228;DHT22;69539;42.138;24.742;2023-05-20T10:32:57;31.40;22.90
80228;DHT22;69539;42.138;24.742;2023-05-20T10:35:25;31.30;23.10
80228;DHT22;69539;42.138;24.742;2023-05-20T10:37:52;31.10;23.20
80228;DHT22;69539;42.138;24.742;2023-05-20T10:40:20;30.90;23.20
80228;DHT22;69539;42.138;24.742;2023-05-20T10:42:47;30.80;23.10
80228;DHT22;69539;42.138;24.742;2023-05-20T10:45:27;30.70;23.20
80228;DHT22;69539;42.138;24.742;2023-05-20T10:47:57;30.80;22.90
80228;DHT22;69539;42.138;24.742;2023-05-20T10:50:27;30.70;22.80
80228;DHT22;69539;42.138;24.742;2023-05-20T10:52:54;30.60;22.60
80228;DHT22;69539;42.138;24.742;2023-05-20T10:55:21;30.50;22.40
80228;DHT22;69539;42.138;24.742;2023-05-20T10:57:47;30.50;22.40
80228;DHT22;69539;42.138;24.742;2023-05-20T11:00:14;30.40;22.50
80228;DHT22;69539;42.138;24.742;2023-05-20T11:02:40;30.30;22.50
80228;DHT22;69539;42.138;24.742;2023-05-20T11:05:10;30.20;22.60
80228;DHT22;69539;42.138;24.742;2023-05-20T11:07:36;30.20;22.80
80228;DHT22;69539;42.138;24.742;2023-05-20T11:10:07;30.10;22.90
80228;DHT22;69539;42.138;24.742;2023-05-20T11:12:33;29.90;23.20
80228;DHT22;69539;42.138;24.742;2023-05-20T11:14:59;29.80;23.30
80228;DHT22;69539;42.138;24.742;2023-05-20T11:17:25;29.70;23.40
80228;DHT22;69539;42.138;24.742;2023-05-20T11:19:51;29.60;23.30
80228;DHT22;69539;42.138;24.742;2023-05-20T11:22:16;29.40;23.20
80228;DHT22;69539;42.138;24.742;2023-05-20T11:24:42;29.30;23.50
80228;DHT22;69539;42.138;24.742;2023-05-20T11:27:08;29.30;23.50
80228;DHT22;69539;42.138;24.742;2023-05-20T11:29:34;29.30;23.50
80228;DHT22;69539;42.138;24.742;2023-05-20T11:32:00;29.30;23.60
80228;DHT22;69539;42.138;24.742;2023-05-20T11:34:35;29.30;23.80
80228;DHT22;69539;42.138;24.742;2023-05-20T11:37:01;29.20;23.70
80228;DHT22;69539;42.138;24.742;2023-05-20T11:39:29;29.30;23.80
80228;DHT22;69539;42.138;24.742;2023-05-20T11:41:56;29.20;23.60
80228;DHT22;69539;42.138;24.742;2023-05-20T11:44:23;29.20;23.50
80228;DHT22;69539;42.138;24.742;2023-05-20T11:46:49;29.20;23.60
80228;DHT22;69539;42.138;24.742;2023-05-20T11:49:15;29.20;23.70
80228;DHT22;69539;42.138;24.742;2023-05-20T11:51:42;29.10;23.50
80228;DHT22;69539;42.138;24.742;2023-05-20T11:54:08;29.10;23.30
80228;DHT22;69539;42.138;24.742;2023-05-20T11:56:38;29.00;23.30
80228;DHT22;69539;42.138;24.742;2023-05-20T11:59:07;29.00;23.20
80228;DHT22;69539;42.138;24.742;2023-05-20T12:01:35;28.90;22.80
80228;DHT22;69539;42.138;24.742;2023-05-20T12:04:08;28.80;22.60
80228;DHT22;69539;42.138;24.742;2023-05-20T12:06:34;28.80;22.50
80228;DHT22;69539;42.138;24.742;2023-05-20T12:09:03;28.70;22.10
80228;DHT22;69539;42.138;24.742;2023-05-20T12:11:37;28.60;22.30
80228;DHT22;69539;42.138;24.742;2023-05-20T12:14:05;28.50;22.70
80228;DHT22;69539;42.138;24.742;2023-05-20T12:16:32;28.40;23.10
80228;DHT22;69539;42.138;24.742;2023-05-20T12:18:58;28.40;23.40
80228;DHT22;69539;42.138;24.742;2023-05-20T12:21:25;28.30;23.40
80228;DHT22;69539;42.138;24.742;2023-05-20T12:23:51;28.30;23.40
80228;DHT22;69539;42.138;24.742;2023-05-20T12:26:28;28.20;23.30
80228;DHT22;69539;42.138;24.742;2023-05-20T12:28:54;28.20;22.90
80228;DHT22;69539;42.138;24.742;2023-05-20T12:31:20;28.10;22.90
80228;DHT22;69539;42.138;24.742;2023-05-20T12:33:46;28.00;22.90
80228;DHT22;69539;42.138;24.742;2023-05-20T12:36:12;27.90;23.00
80228;DHT22;69539;42.138;24.742;2023-05-20T12:38:38;27.90;23.20
80228;DHT22;69539;42.138;24.742;2023-05-20T12:41:04;27.90;23.40
80228;DHT22;69539;42.138;24.742;2023-05-20T12:43:29;27.90;23.50
80228;DHT22;69539;42.138;24.742;2023-05-20T12:45:55;27.90;23.70
80228;DHT22;69539;42.138;24.742;2023-05-20T12:48:21;27.90;23.90
80228;DHT22;69539;42.138;24.742;2023-05-20T12:50:46;27.90;24.10
80228;DHT22;69539;42.138;24.742;2023-05-20T12:53:12;27.90;24.00
80228;DHT22;69539;42.138;24.742;2023-05-20T12:55:38;27.80;24.00
80228;DHT22;69539;42.138;24.742;2023-05-20T12:58:05;27.80;24.00
80228;DHT22;69539;42.138;24.742;2023-05-20T13:00:33;27.80;24.20
80228;DHT22;69539;42.138;24.742;2023-05-20T13:02:59;27.80;24.40
80228;DHT22;69539;42.138;24.742;2023-05-20T13:05:25;27.80;24.40
80228;DHT22;69539;42.138;24.742;2023-05-20T13:07:51;27.80;24.40
80228;DHT22;69539;42.138;24.742;2023-05-20T13:10:16;27.80;24.40
80228;DHT22;69539;42.138;24.742;2023-05-20T13:12:42;27.80;24.40
80228;DHT22;69539;42.138;24.742;2023-05-20T13:15:11;27.80;24.40
80228;DHT22;69539;42.138;24.742;2023-05-20T13:17:38;27.70;24.50
80228;DHT22;69539;42.138;24.742;2023-05-20T13:20:04;27.70;24.60
80228;DHT22;69539;42.138;24.742;2023-05-20T13:22:30;27.70;24.70
80228;DHT22;69539;42.138;24.742;2023-05-20T13:24:56;27.60;24.90
80228;DHT22;69539;42.138;24.742;2023-05-20T13:27:22;27.60;24.90
80228;DHT22;69539;42.138;24.742;2023-05-20T13:29:48;27.60;25.10
80228;DHT22;69539;42.138;24.742;2023-05-20T13:32:14;27.60;25.20
80228;DHT22;69539;42.138;24.742;2023-05-20T13:34:39;27.60;25.20
80228;DHT22;69539;42.138;24.742;2023-05-20T13:37:05;27.60;25.40
80228;DHT22;69539;42.138;24.742;2023-05-20T13:39:31;27.60;25.40
80228;DHT22;69539;42.138;24.742;2023-05-20T13:41:57;27.60;25.50
80228;DHT22;69539;42.138;24.742;2023-05-20T13:44:23;27.60;25.50
80228;DHT22;69539;42.138;24.742;2023-05-20T13:46:48;27.50;25.40
80228;DHT22;69539;42.138;24.742;2023-05-20T13:49:14;27.50;25.40
80228;DHT22;69539;42.138;24.742;2023-05-20T13:51:40;27.50;25.40
80228;DHT22;69539;42.138;24.742;2023-05-20T13:54:05;27.50;25.50
80228;DHT22;69539;42.138;24.742;2023-05-20T13:56:31;27.50;25.50
80228;DHT22;69539;42.138;24.742;2023-05-20T13:58:57;27.40;25.40
80228;DHT22;69539;42.138;24.742;2023-05-20T14:01:23;27.40;25.60
80228;DHT22;69539;42.138;24.742;2023-05-20T14:03:48;27.30;25.80
80228;DHT22;69539;42.138;24.742;2023-05-20T14:06:14;27.30;25.80
80228;DHT22;69539;42.138;24.742;2023-05-20T14:08:43;27.30;25.70
80228;DHT22;69539;42.138;24.742;2023-05-20T14:11:10;27.30;25.60
80228;DHT22;69539;42.138;24.742;2023-05-20T14:13:35;27.20;25.70
80228;DHT22;69539;42.138;24.742;2023-05-20T14:16:01;27.20;25.80
80228;DHT22;69539;42.138;24.742;2023-05-20T14:18:27;27.20;26.80
80228;DHT22;69539;42.138;24.742;2023-05-20T14:20:52;27.10;27.50
80228;DHT22;69539;42.138;24.742;2023-05-20T14:23:18;27.10;27.50
80228;DHT22;69539;42.138;24.742;2023-05-20T14:25:44;27.10;27.00
80228;DHT22;69539;42.138;24.742;2023-05-20T14:28:09;27.10;27.20
80228;DHT22;69539;42.138;24.742;2023-05-20T14:30:36;27.10;27.60
80228;DHT22;69539;42.138;24.742;2023-05-20T14:33:02;27.10;27.60
80228;DHT22;69539;42.138;24.742;2023-05-20T14:35:27;27.10;27.50
80228;DHT22;69539;42.138;24.742;2023-05-20T14:37:53;27.10;27.50
80228;DHT22;69539;42.138;24.742;2023-05-20T14:40:19;27.10;27.30
80228;DHT22;69539;42.138;24.742;2023-05-20T14:42:45;27.00;26.50
80228;DHT22;69539;42.138;24.742;2023-05-20T14:45:10;27.00;26.50
80228;DHT22;69539;42.138;24.742;2023-05-20T14:47:36;27.00;26.70
80228;DHT22;69539;42.138;24.742;2023-05-20T14:50:05;27.10;27.10
80228;DHT22;69539;42.138;24.742;2023-05-20T14:52:31;27.00;26.90
80228;DHT22;69539;42.138;24.742;2023-05-20T14:54:56;27.00;26.70
80228;DHT22;69539;42.138;24.742;2023-05-20T14:57:22;27.00;26.70
80228;DHT22;69539;42.138;24.742;2023-05-20T14:59:48;27.00;26.70
80228;DHT22;69539;42.138;24.742;2023-05-20T15:02:17;26.90;26.50
80228;DHT22;69539;42.138;24.742;2023-05-20T15:04:43;26.90;26.70
80228;DHT22;69539;42.138;24.742;2023-05-20T15:07:11;26.80;26.70
80228;DHT22;69539;42.138;24.742;2023-05-20T15:09:36;26.80;26.50
80228;DHT22;69539;42.138;24.742;2023-05-20T15:12:02;26.70;26.70
80228;DHT22;69539;42.138;24.742;2023-05-20T15:14:28;26.70;26.90
80228;DHT22;69539;42.138;24.742;2023-05-20T15:16:54;26.70;26.90
80228;DHT22;69539;42.138;24.742;2023-05-20T15:19:19;26.60;26.80